Time;durP1;ratioP1;P1;durP2;ratioP2;P2;SDS_P1;SDS_P2;PMS_P1;PMS_P2;Temp;Humidity;BMP_temperature;BMP_pressure;BME280_temperature;BME280_humidity;BME280_pressure;Samples;Min_cycle;Max_cycle;Signal;HPM_P1;HPM_P2
2021/12/19 00:00:40;;;;;;;5.57;5.05;;;;;;;;;;2056589;28;20285;-63
2021/12/19 00:02:59;;;;;;;5.38;4.90;;;;;;;;;;2056965;28;20175;-67
2021/12/19 00:04:25;;;;;;;4.88;4.43;;;;;;;;;;2054727;28;20213;-66
2021/12/19 00:09:21;;;;;;;5.32;4.82;;;;;;;;;;2051514;28;20155;-66
2021/12/19 00:10:22;;;;;;;4.77;4.37;;;;;;;;;;2057498;28;20209;-66
2021/12/19 00:11:23;;;;;;;5.63;5.13;;;;;;;;;;2057861;28;20190;-66
2021/12/19 00:12:24;;;;;;;5.83;5.17;;;;;;;;;;2057245;28;20170;-66
2021/12/19 00:13:25;;;;;;;6.13;5.15;;;;;;;;;;2057839;28;20655;-66
2021/12/19 00:14:25;;;;;;;4.95;4.53;;;;;;;;;;2057379;28;20174;-66
2021/12/19 00:15:26;;;;;;;5.97;5.40;;;;;;;;;;2057864;28;20178;-66
2021/12/19 00:16:26;;;;;;;4.93;4.53;;;;;;;;;;2057327;28;20210;-66
2021/12/19 00:17:27;;;;;;;5.53;5.03;;;;;;;;;;2056442;28;20174;-66
2021/12/19 00:18:27;;;;;;;5.40;4.90;;;;;;;;;;2056403;28;20198;-66
2021/12/19 00:19:27;;;;;;;4.68;4.28;;;;;;;;;;2054778;28;20186;-65
2021/12/19 00:20:28;;;;;;;5.27;4.77;;;;;;;;;;2057474;28;20218;-66
2021/12/19 00:21:28;;;;;;;5.50;4.93;;;;;;;;;;2056936;28;20213;-66
2021/12/19 00:22:28;;;;;;;5.50;5.00;;;;;;;;;;2056302;28;20206;-66
2021/12/19 00:23:28;;;;;;;5.88;5.00;;;;;;;;;;2057037;28;20170;-66
2021/12/19 00:24:29;;;;;;;5.25;4.80;;;;;;;;;;2057030;28;20225;-66
2021/12/19 00:25:29;;;;;;;5.17;4.67;;;;;;;;;;2057764;28;20171;-66
2021/12/19 00:26:30;;;;;;;5.90;5.40;;;;;;;;;;2057278;28;20182;-66
2021/12/19 00:27:30;;;;;;;6.97;5.07;;;;;;;;;;2049137;28;20262;-65
2021/12/19 00:28:31;;;;;;;5.57;5.05;;;;;;;;;;2048795;28;20179;-67
2021/12/19 00:29:31;;;;;;;5.35;4.85;;;;;;;;;;2057685;28;20229;-66
2021/12/19 00:30:32;;;;;;;6.22;5.63;;;;;;;;;;2057587;28;20179;-66
2021/12/19 00:31:32;;;;;;;5.80;5.23;;;;;;;;;;2057219;28;20173;-67
2021/12/19 00:32:33;;;;;;;6.22;5.63;;;;;;;;;;2057379;28;20640;-65
2021/12/19 00:33:33;;;;;;;6.10;5.53;;;;;;;;;;2057752;28;20170;-65
2021/12/19 00:34:33;;;;;;;7.30;6.60;;;;;;;;;;2056019;28;20263;-65
2021/12/19 00:35:33;;;;;;;8.70;6.40;;;;;;;;;;2057427;28;20654;-65
2021/12/19 00:36:34;;;;;;;7.40;6.60;;;;;;;;;;2057412;28;20664;-65
2021/12/19 00:37:34;;;;;;;7.73;6.53;;;;;;;;;;2057657;28;20174;-65
2021/12/19 00:38:34;;;;;;;7.80;6.93;;;;;;;;;;2057666;28;20167;-65
2021/12/19 00:39:35;;;;;;;8.07;6.83;;;;;;;;;;2057953;28;20186;-65
2021/12/19 00:40:37;;;;;;;7.93;7.13;;;;;;;;;;2057170;28;20190;-65
2021/12/19 00:41:37;;;;;;;9.13;6.97;;;;;;;;;;2056695;28;20261;-66
2021/12/19 00:42:37;;;;;;;9.18;8.13;;;;;;;;;;2057000;28;20178;-65
2021/12/19 00:43:54;;;;;;;9.77;8.77;;;;;;;;;;2058221;28;20182;-65
2021/12/19 00:44:54;;;;;;;8.87;7.67;;;;;;;;;;2058195;28;20535;-65
2021/12/19 00:45:55;;;;;;;8.40;7.43;;;;;;;;;;2049591;29;20221;-65
2021/12/19 00:47:04;;;;;;;9.35;8.35;;;;;;;;;;2047107;29;20178;-65
2021/12/19 00:48:05;;;;;;;9.07;8.17;;;;;;;;;;2056730;28;20219;-65
2021/12/19 00:49:05;;;;;;;9.98;8.40;;;;;;;;;;2057241;28;20174;-65
2021/12/19 00:50:06;;;;;;;10.30;8.27;;;;;;;;;;2056945;28;20189;-65
2021/12/19 00:51:07;;;;;;;10.27;8.85;;;;;;;;;;2057285;28;20182;-65
2021/12/19 00:52:07;;;;;;;10.25;8.93;;;;;;;;;;2056704;28;20185;-65
2021/12/19 00:53:09;;;;;;;10.73;8.67;;;;;;;;;;2057463;28;20205;-65
2021/12/19 00:54:09;;;;;;;12.65;8.77;;;;;;;;;;2057184;28;20686;-65
2021/12/19 00:55:09;;;;;;;11.55;9.13;;;;;;;;;;2057429;28;20186;-65
2021/12/19 00:56:10;;;;;;;10.60;8.93;;;;;;;;;;2057461;28;20232;-65
2021/12/19 00:57:10;;;;;;;10.93;9.00;;;;;;;;;;2057514;28;20213;-65
2021/12/19 00:58:10;;;;;;;16.10;9.70;;;;;;;;;;2057339;28;20182;-65
2021/12/19 00:59:11;;;;;;;13.02;9.65;;;;;;;;;;2057403;28;20225;-65
2021/12/19 01:00:17;;;;;;;11.50;10.02;;;;;;;;;;2057106;28;20232;-65
2021/12/19 01:01:18;;;;;;;14.90;10.43;;;;;;;;;;2057412;28;20190;-66
2021/12/19 01:02:18;;;;;;;12.73;9.23;;;;;;;;;;2056010;28;20699;-66
2021/12/19 01:03:19;;;;;;;13.77;10.40;;;;;;;;;;2056611;28;20194;-65
2021/12/19 01:04:20;;;;;;;13.20;9.97;;;;;;;;;;2048712;28;20620;-65
2021/12/19 01:05:20;;;;;;;11.47;9.73;;;;;;;;;;2048767;29;20179;-67
2021/12/19 01:06:21;;;;;;;13.23;10.18;;;;;;;;;;2048792;29;20215;-66
2021/12/19 01:07:21;;;;;;;14.27;10.57;;;;;;;;;;2056556;28;20170;-65
2021/12/19 01:08:21;;;;;;;13.23;10.25;;;;;;;;;;2056430;28;20179;-66
2021/12/19 01:09:21;;;;;;;12.40;9.77;;;;;;;;;;2056615;28;20179;-66
2021/12/19 01:10:22;;;;;;;19.00;11.90;;;;;;;;;;2056139;28;20553;-66
2021/12/19 01:11:22;;;;;;;14.13;10.32;;;;;;;;;;2057004;28;20190;-66
2021/12/19 01:12:24;;;;;;;13.23;10.15;;;;;;;;;;2055876;28;20175;-65
2021/12/19 01:13:24;;;;;;;14.47;11.10;;;;;;;;;;2056034;28;20209;-65
2021/12/19 01:14:24;;;;;;;13.90;10.97;;;;;;;;;;2059621;28;20182;-66
2021/12/19 01:15:24;;;;;;;13.23;9.73;;;;;;;;;;2056772;28;20835;-66
2021/12/19 01:16:25;;;;;;;14.50;10.73;;;;;;;;;;2057462;28;20185;-65
2021/12/19 01:17:25;;;;;;;16.55;10.85;;;;;;;;;;2057120;28;20194;-65
2021/12/19 01:18:25;;;;;;;14.13;10.05;;;;;;;;;;2056884;28;20202;-66
2021/12/19 01:19:26;;;;;;;12.47;9.63;;;;;;;;;;2056521;28;20313;-66
2021/12/19 01:20:27;;;;;;;14.55;9.80;;;;;;;;;;2055499;28;20181;-66
2021/12/19 01:21:27;;;;;;;13.23;9.27;;;;;;;;;;2056514;28;20193;-66
2021/12/19 01:22:28;;;;;;;13.27;9.87;;;;;;;;;;2056020;28;20690;-65
2021/12/19 01:23:28;;;;;;;12.53;9.67;;;;;;;;;;2057470;28;20245;-65
2021/12/19 01:24:28;;;;;;;12.63;9.85;;;;;;;;;;2057123;28;20213;-66
2021/12/19 01:25:29;;;;;;;13.90;9.73;;;;;;;;;;2059573;23;20222;-60
2021/12/19 01:26:29;;;;;;;14.23;9.73;;;;;;;;;;2055519;28;20226;-55
2021/12/19 01:27:29;;;;;;;13.43;9.65;;;;;;;;;;2064610;28;20186;-58
2021/12/19 01:28:29;;;;;;;12.00;9.73;;;;;;;;;;2064023;28;20216;-54
2021/12/19 01:29:30;;;;;;;9.73;8.50;;;;;;;;;;2063528;28;20184;-52
2021/12/19 01:30:30;;;;;;;10.77;8.70;;;;;;;;;;2064873;28;20272;-53
2021/12/19 01:31:30;;;;;;;12.67;9.27;;;;;;;;;;2064639;28;20221;-58
2021/12/19 01:32:31;;;;;;;12.23;9.80;;;;;;;;;;2064597;28;20578;-55
2021/12/19 01:33:31;;;;;;;12.07;9.47;;;;;;;;;;2065017;28;20193;-56
2021/12/19 01:34:31;;;;;;;12.38;9.27;;;;;;;;;;2064674;28;20176;-57
2021/12/19 01:35:31;;;;;;;13.88;9.98;;;;;;;;;;2064517;28;20321;-55
2021/12/19 01:36:32;;;;;;;14.15;10.23;;;;;;;;;;2065115;28;20265;-53
2021/12/19 01:37:32;;;;;;;11.13;8.90;;;;;;;;;;2064859;28;20169;-57
2021/12/19 01:38:33;;;;;;;10.57;8.63;;;;;;;;;;2061906;28;20240;-55
2021/12/19 01:39:33;;;;;;;11.30;8.93;;;;;;;;;;2061905;28;20178;-56
2021/12/19 01:40:33;;;;;;;11.93;8.80;;;;;;;;;;2064930;28;20182;-54
2021/12/19 01:41:34;;;;;;;11.02;8.82;;;;;;;;;;2064720;28;20200;-56
2021/12/19 01:42:38;;;;;;;12.23;10.60;;;;;;;;;;2064218;28;20261;-55
2021/12/19 01:43:41;;;;;;;11.80;9.20;;;;;;;;;;2062855;28;20177;-54
2021/12/19 01:44:44;;;;;;;11.20;8.70;;;;;;;;;;2058230;28;20610;-57
2021/12/19 01:45:44;;;;;;;10.93;8.93;;;;;;;;;;2061139;28;20194;-53
2021/12/19 01:46:46;;;;;;;11.63;9.18;;;;;;;;;;2065717;28;20177;-53
2021/12/19 01:47:47;;;;;;;12.60;9.47;;;;;;;;;;2065951;28;20240;-59
2021/12/19 01:48:47;;;;;;;14.37;9.07;;;;;;;;;;2069291;28;20235;-58
2021/12/19 01:49:47;;;;;;;12.87;9.33;;;;;;;;;;2070086;28;20177;-57
2021/12/19 01:50:48;;;;;;;10.75;8.50;;;;;;;;;;2070023;28;20708;-57
2021/12/19 01:51:48;;;;;;;12.45;9.38;;;;;;;;;;2068700;28;20189;-55
2021/12/19 01:52:49;;;;;;;10.48;8.60;;;;;;;;;;2069612;28;20628;-57
2021/12/19 01:53:49;;;;;;;10.52;8.35;;;;;;;;;;2069718;28;20256;-56
2021/12/19 01:54:50;;;;;;;12.02;9.02;;;;;;;;;;2068780;28;20193;-57
2021/12/19 01:55:50;;;;;;;11.60;8.73;;;;;;;;;;2069805;28;20205;-59
2021/12/19 01:56:51;;;;;;;12.20;9.03;;;;;;;;;;2057981;28;20284;-58
2021/12/19 01:57:51;;;;;;;9.97;8.80;;;;;;;;;;2057249;28;20208;-56
2021/12/19 01:58:51;;;;;;;12.32;9.55;;;;;;;;;;2065297;28;20268;-58
2021/12/19 01:59:54;;;;;;;10.37;8.63;;;;;;;;;;2065574;28;20220;-58
2021/12/19 02:00:56;;;;;;;12.00;8.80;;;;;;;;;;2065299;28;20205;-58
2021/12/19 02:01:56;;;;;;;10.67;8.77;;;;;;;;;;2065436;28;20180;-57
2021/12/19 02:02:57;;;;;;;11.70;9.50;;;;;;;;;;2065874;28;20260;-56
2021/12/19 02:03:57;;;;;;;10.77;8.93;;;;;;;;;;2068028;28;20169;-54
2021/12/19 02:04:57;;;;;;;11.10;8.80;;;;;;;;;;2058616;28;20269;-54
2021/12/19 02:05:57;;;;;;;12.50;10.10;;;;;;;;;;2059027;28;20223;-54
2021/12/19 02:06:58;;;;;;;10.60;9.18;;;;;;;;;;2058129;28;20670;-55
2021/12/19 02:07:59;;;;;;;12.17;9.70;;;;;;;;;;2049510;28;20181;-58
2021/12/19 02:09:05;;;;;;;11.15;9.38;;;;;;;;;;2049441;29;20177;-55
2021/12/19 02:10:08;;;;;;;13.20;9.33;;;;;;;;;;2058868;28;20197;-55
2021/12/19 02:11:09;;;;;;;10.63;8.98;;;;;;;;;;2066257;28;20187;-54
2021/12/19 02:12:09;;;;;;;10.18;8.52;;;;;;;;;;2065757;28;20189;-55
2021/12/19 02:13:10;;;;;;;13.00;9.73;;;;;;;;;;2066635;28;20529;-56
2021/12/19 02:14:11;;;;;;;12.10;9.07;;;;;;;;;;2067819;28;20180;-54
2021/12/19 02:15:14;;;;;;;10.52;9.02;;;;;;;;;;2065933;28;20182;-58
2021/12/19 02:16:14;;;;;;;11.70;8.93;;;;;;;;;;2057148;28;20182;-55
2021/12/19 02:17:16;;;;;;;10.93;8.20;;;;;;;;;;2056803;28;20177;-58
2021/12/19 02:18:17;;;;;;;9.48;7.97;;;;;;;;;;2065320;28;20174;-57
2021/12/19 02:19:17;;;;;;;11.57;8.90;;;;;;;;;;2054651;28;20192;-58
2021/12/19 02:20:18;;;;;;;12.30;9.00;;;;;;;;;;2056452;28;20201;-56
2021/12/19 02:21:18;;;;;;;10.65;8.85;;;;;;;;;;2059474;28;20194;-54
2021/12/19 02:22:18;;;;;;;9.45;8.27;;;;;;;;;;2064148;28;20171;-55
2021/12/19 02:23:19;;;;;;;11.20;9.27;;;;;;;;;;2064164;28;20567;-57
2021/12/19 02:24:20;;;;;;;12.13;9.27;;;;;;;;;;2065027;28;20173;-59
2021/12/19 02:25:20;;;;;;;12.00;9.18;;;;;;;;;;2064050;28;20197;-58
2021/12/19 02:26:20;;;;;;;10.10;8.33;;;;;;;;;;2061299;28;20694;-57
2021/12/19 02:27:25;;;;;;;11.93;8.83;;;;;;;;;;2064795;28;20503;-58
2021/12/19 02:28:25;;;;;;;10.30;8.82;;;;;;;;;;2064591;28;20220;-58
2021/12/19 02:29:25;;;;;;;12.45;8.68;;;;;;;;;;2063884;28;20601;-53
2021/12/19 02:30:25;;;;;;;12.18;9.05;;;;;;;;;;2064510;28;20166;-57
2021/12/19 02:31:28;;;;;;;10.02;8.40;;;;;;;;;;2062235;28;20189;-56
2021/12/19 02:32:30;;;;;;;13.25;9.23;;;;;;;;;;2056260;28;20182;-57
2021/12/19 02:33:31;;;;;;;11.98;9.63;;;;;;;;;;2065043;28;20884;-54
2021/12/19 02:34:38;;;;;;;11.27;9.50;;;;;;;;;;2064735;28;20200;-56
2021/12/19 02:35:41;;;;;;;10.77;9.35;;;;;;;;;;2064829;28;20224;-56
2021/12/19 02:38:15;;;;;;;10.90;9.07;;;;;;;;;;2064864;28;20182;-57
2021/12/19 02:39:33;;;;;;;13.77;9.02;;;;;;;;;;2063532;28;20209;-54
2021/12/19 02:48:33;;;;;;;10.90;8.23;;;;;;;;;;2069395;28;20745;-55
2021/12/19 02:49:34;;;;;;;12.00;9.15;;;;;;;;;;2069111;28;20174;-56
2021/12/19 02:50:35;;;;;;;9.68;8.68;;;;;;;;;;2069868;28;20198;-56
2021/12/19 02:51:35;;;;;;;10.67;8.90;;;;;;;;;;2053254;29;20194;-58
2021/12/19 02:52:35;;;;;;;9.88;7.97;;;;;;;;;;2056236;28;20186;-58
2021/12/19 02:53:37;;;;;;;12.33;9.10;;;;;;;;;;2066630;28;20643;-54
2021/12/19 02:54:37;;;;;;;10.60;9.15;;;;;;;;;;2064915;28;20257;-59
2021/12/19 02:55:38;;;;;;;9.55;8.60;;;;;;;;;;2064116;28;20185;-58
2021/12/19 02:56:38;;;;;;;9.80;8.70;;;;;;;;;;2064962;28;20177;-55
2021/12/19 02:57:40;;;;;;;11.20;9.07;;;;;;;;;;2065315;28;20205;-57
2021/12/19 02:58:42;;;;;;;9.87;8.90;;;;;;;;;;2066637;28;20546;-60
2021/12/19 02:59:42;;;;;;;11.57;9.27;;;;;;;;;;2065571;28;20607;-58
2021/12/19 03:00:42;;;;;;;13.80;10.27;;;;;;;;;;2058497;28;20241;-58
2021/12/19 03:01:44;;;;;;;10.88;8.68;;;;;;;;;;2050812;29;20186;-57
2021/12/19 03:02:45;;;;;;;11.87;9.30;;;;;;;;;;2059017;28;20202;-57
2021/12/19 03:03:45;;;;;;;10.10;8.95;;;;;;;;;;2066806;28;20170;-59
2021/12/19 03:04:53;;;;;;;10.97;9.03;;;;;;;;;;2066573;28;20181;-59
2021/12/19 03:05:53;;;;;;;9.27;7.95;;;;;;;;;;2056991;28;20214;-58
2021/12/19 03:06:53;;;;;;;8.35;7.50;;;;;;;;;;2055225;28;20167;-58
2021/12/19 03:07:54;;;;;;;10.65;9.30;;;;;;;;;;2062846;28;20182;-58
2021/12/19 03:08:57;;;;;;;10.38;8.77;;;;;;;;;;2064134;28;20638;-55
2021/12/19 03:11:39;;;;;;;9.88;8.85;;;;;;;;;;2055737;28;20185;-52
2021/12/19 03:18:26;;;;;;;9.65;7.70;;;;;;;;;;2057510;28;20214;-53
2021/12/19 03:19:27;;;;;;;10.45;8.20;;;;;;;;;;2057402;28;20179;-56
2021/12/19 03:20:29;;;;;;;8.38;7.47;;;;;;;;;;2066240;28;20697;-56
2021/12/19 03:21:29;;;;;;;8.73;7.87;;;;;;;;;;2066355;28;20174;-56
2021/12/19 03:22:30;;;;;;;9.35;8.35;;;;;;;;;;2065025;28;20665;-55
2021/12/19 03:23:30;;;;;;;9.80;8.15;;;;;;;;;;2057172;28;20269;-53
2021/12/19 03:24:30;;;;;;;9.52;8.40;;;;;;;;;;2057041;28;20273;-55
2021/12/19 03:25:31;;;;;;;9.75;8.60;;;;;;;;;;2060779;28;20247;-55
2021/12/19 03:26:31;;;;;;;9.30;7.90;;;;;;;;;;2056563;28;20185;-54
2021/12/19 03:27:31;;;;;;;10.70;8.25;;;;;;;;;;2057474;28;20662;-58
2021/12/19 03:28:32;;;;;;;9.23;7.78;;;;;;;;;;2065851;28;20196;-58
2021/12/19 03:29:32;;;;;;;10.60;8.52;;;;;;;;;;2066214;28;20204;-57
2021/12/19 03:30:33;;;;;;;10.38;8.05;;;;;;;;;;2065924;28;20177;-56
2021/12/19 03:31:33;;;;;;;10.40;8.43;;;;;;;;;;2066480;28;20256;-57
2021/12/19 03:32:34;;;;;;;11.70;7.85;;;;;;;;;;2065996;28;20919;-58
2021/12/19 03:33:35;;;;;;;12.32;8.18;;;;;;;;;;2057484;28;20166;-57
2021/12/19 03:34:36;;;;;;;9.80;8.35;;;;;;;;;;2057359;28;20575;-56
2021/12/19 03:35:36;;;;;;;9.82;7.93;;;;;;;;;;2057610;28;20195;-56
2021/12/19 03:36:36;;;;;;;7.85;7.05;;;;;;;;;;2057416;28;20595;-57
2021/12/19 03:37:37;;;;;;;9.38;8.07;;;;;;;;;;2057691;28;20230;-57
2021/12/19 03:38:41;;;;;;;8.27;7.43;;;;;;;;;;2057362;28;20167;-56
2021/12/19 03:39:56;;;;;;;10.85;8.63;;;;;;;;;;2065449;28;20239;-55
2021/12/19 03:42:26;;;;;;;9.52;7.50;;;;;;;;;;2048115;28;20248;-57
2021/12/19 03:43:26;;;;;;;8.30;7.47;;;;;;;;;;2066052;28;20216;-61
2021/12/19 03:44:27;;;;;;;10.33;8.23;;;;;;;;;;2065534;28;20181;-58
2021/12/19 03:45:27;;;;;;;11.10;8.93;;;;;;;;;;2065626;28;20267;-57
2021/12/19 03:46:27;;;;;;;10.35;8.27;;;;;;;;;;2066238;28;20177;-58
2021/12/19 03:47:28;;;;;;;12.65;8.85;;;;;;;;;;2066221;28;20238;-56
2021/12/19 03:48:28;;;;;;;9.98;7.85;;;;;;;;;;2058325;28;20667;-52
2021/12/19 03:49:28;;;;;;;9.43;8.15;;;;;;;;;;2057607;28;20174;-52
2021/12/19 03:50:30;;;;;;;10.25;8.40;;;;;;;;;;2066204;28;20216;-52
2021/12/19 03:51:31;;;;;;;11.32;8.90;;;;;;;;;;2066339;28;20177;-56
2021/12/19 03:52:32;;;;;;;9.83;8.07;;;;;;;;;;2065583;28;20538;-55
2021/12/19 03:53:32;;;;;;;9.75;8.38;;;;;;;;;;2057110;28;20178;-53
2021/12/19 03:54:32;;;;;;;9.95;8.70;;;;;;;;;;2056972;28;20178;-53
2021/12/19 03:55:33;;;;;;;9.30;7.63;;;;;;;;;;2065898;28;20619;-53
2021/12/19 03:56:33;;;;;;;10.13;8.77;;;;;;;;;;2066041;28;20207;-54
2021/12/19 03:57:33;;;;;;;10.10;8.85;;;;;;;;;;2065442;28;20174;-56
2021/12/19 03:58:33;;;;;;;9.68;8.15;;;;;;;;;;2065620;28;20201;-54
2021/12/19 03:59:34;;;;;;;10.07;8.80;;;;;;;;;;2065419;28;20185;-53
2021/12/19 04:00:35;;;;;;;9.57;8.15;;;;;;;;;;2057097;28;20697;-52
2021/12/19 04:01:36;;;;;;;9.32;8.15;;;;;;;;;;2057107;28;20191;-53
2021/12/19 04:02:36;;;;;;;9.80;8.80;;;;;;;;;;2065785;28;20174;-52
2021/12/19 04:03:37;;;;;;;11.65;9.13;;;;;;;;;;2065888;28;20220;-53
2021/12/19 04:04:38;;;;;;;10.00;8.98;;;;;;;;;;2065837;28;20244;-56
2021/12/19 04:05:39;;;;;;;9.97;8.10;;;;;;;;;;2066514;28;20211;-52
2021/12/19 04:06:39;;;;;;;11.52;8.77;;;;;;;;;;2066152;28;20228;-53
2021/12/19 04:07:39;;;;;;;9.75;8.23;;;;;;;;;;2066115;28;20172;-56
2021/12/19 04:08:40;;;;;;;10.85;8.75;;;;;;;;;;2066028;28;20694;-52
2021/12/19 04:09:40;;;;;;;10.37;9.03;;;;;;;;;;2066247;28;20188;-59
2021/12/19 04:10:41;;;;;;;10.75;9.20;;;;;;;;;;2057690;28;20178;-61
2021/12/19 04:11:41;;;;;;;9.38;8.45;;;;;;;;;;2057685;28;20248;-58
2021/12/19 04:12:43;;;;;;;11.05;8.77;;;;;;;;;;2065693;28;20200;-60
2021/12/19 04:13:43;;;;;;;9.95;8.20;;;;;;;;;;2066686;28;20554;-60
2021/12/19 04:14:43;;;;;;;10.18;8.48;;;;;;;;;;2066199;28;20186;-53
2021/12/19 04:15:43;;;;;;;10.60;9.40;;;;;;;;;;2065542;28;20192;-54
2021/12/19 04:16:44;;;;;;;13.70;10.37;;;;;;;;;;2061845;28;20192;-53
2021/12/19 04:17:44;;;;;;;11.93;9.18;;;;;;;;;;2065313;28;20173;-54
2021/12/19 04:18:44;;;;;;;9.73;8.07;;;;;;;;;;2065019;28;20185;-57
2021/12/19 04:19:45;;;;;;;13.55;9.80;;;;;;;;;;2061014;28;20222;-55
2021/12/19 04:20:45;;;;;;;12.65;9.60;;;;;;;;;;2062442;28;20209;-55
2021/12/19 04:21:45;;;;;;;13.23;10.18;;;;;;;;;;2065441;28;20271;-54
2021/12/19 04:22:46;;;;;;;12.50;9.45;;;;;;;;;;2064854;28;20177;-55
2021/12/19 04:23:47;;;;;;;12.32;9.90;;;;;;;;;;2065537;28;20253;-56
2021/12/19 04:24:47;;;;;;;11.85;10.23;;;;;;;;;;2065778;28;20531;-54
2021/12/19 04:25:49;;;;;;;14.23;10.75;;;;;;;;;;2065362;28;20205;-54
2021/12/19 04:26:50;;;;;;;12.63;9.55;;;;;;;;;;2064473;28;20268;-53
2021/12/19 04:27:50;;;;;;;11.85;9.95;;;;;;;;;;2057237;28;20189;-53
2021/12/19 04:28:50;;;;;;;12.77;10.32;;;;;;;;;;2056837;28;20167;-53
2021/12/19 04:29:52;;;;;;;13.00;9.93;;;;;;;;;;2066052;28;20308;-52
2021/12/19 04:30:53;;;;;;;12.75;10.10;;;;;;;;;;2065320;28;20244;-54
2021/12/19 04:31:53;;;;;;;10.93;9.65;;;;;;;;;;2056661;28;20191;-55
2021/12/19 04:33:13;;;;;;;13.80;9.88;;;;;;;;;;2056854;28;20218;-52
2021/12/19 04:34:13;;;;;;;11.88;8.85;;;;;;;;;;2064987;28;20165;-53
2021/12/19 04:35:14;;;;;;;13.20;9.40;;;;;;;;;;2065367;28;20182;-53
2021/12/19 04:36:22;;;;;;;12.43;9.68;;;;;;;;;;2064768;28;20224;-53
2021/12/19 04:39:56;;;;;;;13.80;10.63;;;;;;;;;;2055941;28;20182;-54
2021/12/19 04:44:21;;;;;;;12.23;9.88;;;;;;;;;;2031475;29;20192;-53
2021/12/19 04:50:59;;;;;;;11.55;9.35;;;;;;;;;;2065517;28;20185;-53
2021/12/19 04:57:23;;;;;;;16.27;11.55;;;;;;;;;;2065697;28;20170;-54
2021/12/19 05:00:55;;;;;;;16.27;11.35;;;;;;;;;;2065512;28;20274;-56
2021/12/19 05:03:04;;;;;;;15.30;11.02;;;;;;;;;;2065316;28;20161;-54
2021/12/19 05:04:10;;;;;;;14.00;11.02;;;;;;;;;;2064623;28;20582;-55
2021/12/19 05:14:24;;;;;;;8.80;7.32;;;;;;;;;;2065751;28;20549;-57
2021/12/19 05:15:27;;;;;;;9.68;6.82;;;;;;;;;;2065360;28;20204;-56
2021/12/19 05:16:27;;;;;;;8.63;7.17;;;;;;;;;;2065458;28;20264;-56
2021/12/19 05:17:29;;;;;;;8.63;7.53;;;;;;;;;;2065838;28;20201;-56
2021/12/19 05:18:34;;;;;;;8.90;6.97;;;;;;;;;;2065498;28;20186;-57
2021/12/19 05:19:53;;;;;;;9.63;7.67;;;;;;;;;;2065443;28;20181;-58
2021/12/19 05:20:58;;;;;;;9.13;7.67;;;;;;;;;;2065970;28;20208;-57
2021/12/19 05:22:02;;;;;;;8.65;7.50;;;;;;;;;;2066174;28;20173;-55
2021/12/19 05:23:11;;;;;;;9.87;7.20;;;;;;;;;;2061866;28;20232;-57
2021/12/19 05:25:20;;;;;;;9.00;7.35;;;;;;;;;;2064945;28;20185;-55
2021/12/19 05:26:21;;;;;;;8.40;6.80;;;;;;;;;;2056960;28;20174;-57
2021/12/19 05:27:21;;;;;;;8.48;7.15;;;;;;;;;;2057173;28;20181;-58
2021/12/19 05:28:21;;;;;;;6.93;6.18;;;;;;;;;;2062024;28;20218;-59
2021/12/19 05:29:22;;;;;;;7.15;6.55;;;;;;;;;;2066761;28;20196;-58
2021/12/19 05:30:23;;;;;;;6.70;5.95;;;;;;;;;;2066845;28;20174;-58
2021/12/19 05:31:23;;;;;;;7.10;6.40;;;;;;;;;;2065882;28;20173;-60
2021/12/19 05:32:23;;;;;;;8.20;6.97;;;;;;;;;;2066148;28;20166;-57
2021/12/19 05:33:24;;;;;;;7.38;6.68;;;;;;;;;;2065332;28;20181;-58
2021/12/19 05:34:25;;;;;;;6.50;5.90;;;;;;;;;;2065698;28;20189;-56
2021/12/19 05:44:07;;;;;;;6.93;6.33;;;;;;;;;;2065995;28;20201;-57
2021/12/19 05:45:53;;;;;;;5.57;5.05;;;;;;;;;;2064313;28;20217;-55
2021/12/19 05:46:53;;;;;;;5.47;4.97;;;;;;;;;;2064588;28;20201;-58
2021/12/19 05:47:54;;;;;;;4.10;3.70;;;;;;;;;;2064882;28;20320;-58
2021/12/19 05:48:54;;;;;;;4.93;4.53;;;;;;;;;;2064962;28;20224;-55
2021/12/19 05:49:54;;;;;;;4.90;4.40;;;;;;;;;;2065089;28;20510;-55
2021/12/19 05:50:54;;;;;;;5.97;5.47;;;;;;;;;;2064938;28;20750;-54
2021/12/19 05:51:55;;;;;;;5.22;4.80;;;;;;;;;;2064791;28;20697;-57
2021/12/19 05:52:55;;;;;;;5.38;4.80;;;;;;;;;;2055423;28;20181;-57
2021/12/19 05:53:55;;;;;;;5.32;4.82;;;;;;;;;;2056315;28;20202;-53
2021/12/19 05:54:56;;;;;;;4.97;4.50;;;;;;;;;;2056641;28;20244;-54
2021/12/19 05:55:57;;;;;;;5.13;4.63;;;;;;;;;;2056623;28;20198;-55
2021/12/19 05:56:57;;;;;;;5.03;4.63;;;;;;;;;;2065538;28;20236;-57
2021/12/19 05:57:58;;;;;;;4.97;4.57;;;;;;;;;;2056426;28;20659;-55
2021/12/19 05:58:58;;;;;;;5.33;4.83;;;;;;;;;;2056508;28;20193;-55
2021/12/19 05:59:58;;;;;;;5.43;4.40;;;;;;;;;;2065004;28;20267;-57
2021/12/19 06:00:59;;;;;;;6.90;5.00;;;;;;;;;;2064114;28;20240;-56
2021/12/19 06:01:59;;;;;;;5.80;5.30;;;;;;;;;;2064948;28;20534;-56
2021/12/19 06:03:03;;;;;;;6.43;4.75;;;;;;;;;;2064708;28;20274;-58
2021/12/19 06:04:03;;;;;;;5.60;5.10;;;;;;;;;;2065141;28;20209;-56
2021/12/19 06:05:03;;;;;;;5.60;5.10;;;;;;;;;;2065108;28;20181;-57
2021/12/19 06:06:04;;;;;;;5.23;4.70;;;;;;;;;;2056673;28;20205;-54
2021/12/19 06:07:04;;;;;;;4.60;4.20;;;;;;;;;;2056464;28;20190;-54
2021/12/19 06:08:04;;;;;;;4.43;4.03;;;;;;;;;;2065011;28;20196;-54
2021/12/19 06:09:05;;;;;;;4.63;4.22;;;;;;;;;;2065274;28;20174;-55
2021/12/19 06:10:06;;;;;;;4.65;4.22;;;;;;;;;;2065154;28;20224;-54
2021/12/19 06:11:06;;;;;;;3.80;3.50;;;;;;;;;;2065077;28;20177;-54
2021/12/19 06:12:06;;;;;;;4.13;3.73;;;;;;;;;;2065536;28;20170;-58
2021/12/19 06:13:07;;;;;;;4.67;4.03;;;;;;;;;;2066132;28;20750;-56
2021/12/19 06:14:07;;;;;;;4.10;3.73;;;;;;;;;;2067551;28;20689;-54
2021/12/19 06:15:09;;;;;;;4.82;3.80;;;;;;;;;;2066251;28;20573;-57
2021/12/19 06:16:09;;;;;;;4.25;3.85;;;;;;;;;;2066780;28;20165;-54
2021/12/19 06:17:09;;;;;;;4.25;3.95;;;;;;;;;;2065840;28;20212;-55
2021/12/19 06:18:09;;;;;;;4.25;3.83;;;;;;;;;;2055929;28;20236;-56
2021/12/19 06:19:10;;;;;;;3.85;3.55;;;;;;;;;;2056479;28;20237;-54
2021/12/19 06:20:10;;;;;;;4.53;4.13;;;;;;;;;;2064864;28;20539;-56
2021/12/19 06:21:11;;;;;;;4.70;4.30;;;;;;;;;;2064693;28;20201;-53
2021/12/19 06:22:11;;;;;;;4.57;4.17;;;;;;;;;;2064076;28;20272;-51
2021/12/19 06:23:11;;;;;;;4.53;3.87;;;;;;;;;;2063291;28;20181;-53
2021/12/19 06:24:12;;;;;;;4.25;3.95;;;;;;;;;;2055458;28;20588;-55
2021/12/19 06:25:12;;;;;;;4.80;4.32;;;;;;;;;;2055414;28;20182;-56
2021/12/19 06:26:13;;;;;;;5.13;4.03;;;;;;;;;;2064886;28;20176;-52
2021/12/19 06:27:13;;;;;;;4.57;4.18;;;;;;;;;;2064860;28;20616;-54
2021/12/19 06:28:14;;;;;;;4.25;3.85;;;;;;;;;;2064677;28;20213;-55
2021/12/19 06:29:14;;;;;;;5.27;4.67;;;;;;;;;;2063895;28;20184;-54
2021/12/19 06:30:15;;;;;;;4.50;4.10;;;;;;;;;;2064317;28;20518;-56
2021/12/19 06:31:15;;;;;;;5.67;3.90;;;;;;;;;;2064177;28;20606;-57
2021/12/19 06:32:18;;;;;;;4.65;4.25;;;;;;;;;;2056218;28;20564;-54
2021/12/19 06:33:19;;;;;;;5.00;4.20;;;;;;;;;;2055441;28;20569;-54
2021/12/19 06:34:19;;;;;;;4.15;3.83;;;;;;;;;;2063625;28;20269;-55
2021/12/19 06:35:22;;;;;;;5.47;4.50;;;;;;;;;;2056311;28;20667;-56
2021/12/19 06:36:22;;;;;;;4.13;3.83;;;;;;;;;;2056639;28;20205;-54
2021/12/19 06:37:22;;;;;;;4.82;4.13;;;;;;;;;;2065111;28;20541;-53
2021/12/19 06:38:23;;;;;;;3.93;3.63;;;;;;;;;;2056252;28;20162;-54
2021/12/19 06:39:23;;;;;;;4.65;4.22;;;;;;;;;;2056607;28;20265;-58
2021/12/19 06:40:24;;;;;;;4.60;4.20;;;;;;;;;;2061654;28;20174;-55
2021/12/19 06:41:24;;;;;;;4.82;4.07;;;;;;;;;;2064954;28;20236;-56
2021/12/19 06:42:24;;;;;;;4.17;3.77;;;;;;;;;;2055727;28;20193;-57
2021/12/19 06:43:25;;;;;;;3.90;3.60;;;;;;;;;;2048184;29;20543;-54
2021/12/19 06:44:25;;;;;;;4.70;3.85;;;;;;;;;;2056381;28;20167;-58
2021/12/19 06:45:25;;;;;;;3.53;3.22;;;;;;;;;;2064858;28;20690;-56
2021/12/19 06:46:25;;;;;;;4.27;3.97;;;;;;;;;;2056350;28;20197;-56
2021/12/19 06:47:26;;;;;;;3.75;3.42;;;;;;;;;;2056474;28;20173;-53
2021/12/19 06:48:26;;;;;;;4.15;3.83;;;;;;;;;;2065188;28;20176;-52
2021/12/19 06:49:27;;;;;;;3.85;3.50;;;;;;;;;;2065418;28;20257;-57
2021/12/19 06:50:27;;;;;;;3.80;3.50;;;;;;;;;;2066339;28;20202;-56
2021/12/19 06:51:27;;;;;;;4.15;3.85;;;;;;;;;;2058310;28;20178;-58
2021/12/19 06:52:28;;;;;;;3.90;3.60;;;;;;;;;;2057750;28;20186;-62
2021/12/19 06:53:29;;;;;;;3.47;3.17;;;;;;;;;;2065561;28;20185;-57
2021/12/19 06:54:30;;;;;;;3.00;2.70;;;;;;;;;;2066324;28;20186;-59
2021/12/19 06:55:30;;;;;;;3.58;3.28;;;;;;;;;;2066632;28;20204;-55
2021/12/19 06:56:31;;;;;;;3.25;3.05;;;;;;;;;;2066481;28;20257;-56
2021/12/19 06:57:31;;;;;;;3.35;2.90;;;;;;;;;;2066829;28;20655;-56
2021/12/19 06:58:31;;;;;;;3.58;3.28;;;;;;;;;;2066163;28;20216;-57
2021/12/19 06:59:31;;;;;;;3.37;3.07;;;;;;;;;;2066696;28;20173;-58
2021/12/19 07:00:32;;;;;;;3.50;3.30;;;;;;;;;;2066219;28;20169;-59
2021/12/19 07:01:32;;;;;;;3.30;3.00;;;;;;;;;;2066663;28;20205;-56
2021/12/19 07:02:33;;;;;;;3.33;3.03;;;;;;;;;;2066595;28;20170;-58
2021/12/19 07:03:34;;;;;;;3.33;3.03;;;;;;;;;;2057153;28;20175;-55
2021/12/19 07:04:34;;;;;;;4.15;2.95;;;;;;;;;;2058003;28;20173;-54
2021/12/19 07:05:35;;;;;;;3.43;3.13;;;;;;;;;;2066350;28;20556;-55
2021/12/19 07:06:35;;;;;;;3.95;3.63;;;;;;;;;;2065931;28;20248;-54
2021/12/19 07:07:35;;;;;;;3.83;3.53;;;;;;;;;;2066249;28;20194;-50